Terminal Aerodrome Forecast
Issued by NWS

Home | Current Version | Previous Version | Text Only | Print | Product List | Glossary On
Versions: 1 2 3 4 5 6 7 8 9 10 11 12 13 14 15 16
000
FTUS44 KLZK 250500
TAFHOT
TAF
KHOT 250520Z 2506/2606 29004KT P6SM SKC
     FM251000 27003KT P6SM BKN150 BKN250
     FM251500 29010G18KT P6SM BKN060
     FM252100 29012G22KT P6SM SCT060=

USA.gov is the U.S. government's official web portal to all federal, state and local government web resources and services.